createdAt,value
2018-12-25T00:00:39.858Z,1027.25
2018-12-25T00:01:39.849Z,1027.30
2018-12-25T00:02:39.860Z,1027.33
2018-12-25T00:03:39.868Z,1027.35
2018-12-25T00:04:39.815Z,1027.30
2018-12-25T00:05:39.803Z,1027.36
2018-12-25T00:06:39.794Z,1027.38
2018-12-25T00:07:39.784Z,1027.40
2018-12-25T00:08:39.795Z,1027.36
2018-12-25T00:09:39.790Z,1027.42
2018-12-25T00:10:39.763Z,1027.38
2018-12-25T00:11:39.743Z,1027.31
2018-12-25T00:12:39.734Z,1027.27
2018-12-25T00:13:39.720Z,1027.24
2018-12-25T00:14:39.739Z,1027.24
2018-12-25T00:15:39.707Z,1027.27
2018-12-25T00:16:39.715Z,1027.29
2018-12-25T00:17:39.679Z,1027.26
2018-12-25T00:18:39.667Z,1027.29
2018-12-25T00:19:39.686Z,1027.25
2018-12-25T00:20:39.719Z,1027.24
2018-12-25T00:21:39.640Z,1027.27
2018-12-25T00:22:39.627Z,1027.19
2018-12-25T00:23:39.617Z,1027.22
2018-12-25T00:24:39.638Z,1027.23
2018-12-25T00:25:39.604Z,1027.27
2018-12-25T00:26:39.588Z,1027.29
2018-12-25T00:27:39.611Z,1027.31
2018-12-25T00:28:39.566Z,1027.31
2018-12-25T00:29:39.582Z,1027.31
2018-12-25T00:30:39.569Z,1027.35
2018-12-25T00:31:39.539Z,1027.34
2018-12-25T00:32:39.535Z,1027.34
2018-12-25T00:33:39.514Z,1027.35
2018-12-25T00:34:39.505Z,1027.41
2018-12-25T00:35:39.540Z,1027.39
2018-12-25T00:36:39.554Z,1027.38
2018-12-25T00:37:39.476Z,1027.39
2018-12-25T00:38:39.461Z,1027.41
2018-12-25T00:39:39.451Z,1027.38
2018-12-25T00:40:39.440Z,1027.47
2018-12-25T00:41:39.457Z,1027.43
2018-12-25T00:42:39.418Z,1027.42
2018-12-25T00:43:39.424Z,1027.40
2018-12-25T00:44:39.397Z,1027.44
2018-12-25T00:45:39.420Z,1027.41
2018-12-25T00:46:39.378Z,1027.42
2018-12-25T00:47:39.441Z,1027.41
2018-12-25T00:48:39.355Z,1027.44
2018-12-25T00:49:39.351Z,1027.44
2018-12-25T00:50:39.361Z,1027.45
2018-12-25T00:51:39.333Z,1027.43
2018-12-25T00:52:39.319Z,1027.45
2018-12-25T00:53:39.306Z,1027.44
2018-12-25T00:54:39.310Z,1027.45
2018-12-25T00:55:39.318Z,1027.50
2018-12-25T00:56:39.302Z,1027.49
2018-12-25T00:57:39.260Z,1027.50
2018-12-25T00:58:39.251Z,1027.49
2018-12-25T00:59:39.241Z,1027.53
2018-12-25T01:00:39.259Z,1027.56
2018-12-25T01:01:39.243Z,1027.51
2018-12-25T01:02:39.208Z,1027.55
2018-12-25T01:03:39.206Z,1027.51
2018-12-25T01:04:39.190Z,1027.54
2018-12-25T01:05:39.179Z,1027.52
2018-12-25T01:06:39.198Z,1027.53
2018-12-25T01:07:39.161Z,1027.51
2018-12-25T01:08:39.151Z,1027.45
2018-12-25T01:09:39.140Z,1027.47
2018-12-25T01:10:39.128Z,1027.47
2018-12-25T01:11:39.163Z,1027.48
2018-12-25T01:12:39.107Z,1027.53
2018-12-25T01:13:39.095Z,1027.52
2018-12-25T01:14:39.090Z,1027.51
2018-12-25T01:15:39.077Z,1027.49
2018-12-25T01:16:39.065Z,1027.48
2018-12-25T01:17:39.084Z,1027.47
2018-12-25T01:18:39.044Z,1027.46
2018-12-25T01:19:39.031Z,1027.43
2018-12-25T01:20:39.023Z,1027.44
2018-12-25T01:21:39.013Z,1027.39
2018-12-25T01:22:39.029Z,1027.42
2018-12-25T01:23:38.992Z,1027.45
2018-12-25T01:24:38.979Z,1027.38
2018-12-25T01:25:38.970Z,1027.41
2018-12-25T01:26:38.972Z,1027.42
2018-12-25T01:27:38.979Z,1027.39
2018-12-25T01:28:38.941Z,1027.41
2018-12-25T01:29:38.925Z,1027.40
2018-12-25T01:30:38.913Z,1027.41
2018-12-25T01:31:38.904Z,1027.39
2018-12-25T01:32:38.922Z,1027.38
2018-12-25T01:33:38.883Z,1027.43
2018-12-25T01:34:38.874Z,1027.39
2018-12-25T01:35:38.864Z,1027.38
2018-12-25T01:36:38.851Z,1027.39
2018-12-25T01:37:38.878Z,1027.39
2018-12-25T01:38:38.830Z,1027.38
2018-12-25T01:39:38.821Z,1027.40
2018-12-25T01:40:38.813Z,1027.44
2018-12-25T01:41:38.799Z,1027.47
2018-12-25T01:42:38.818Z,1027.47
2018-12-25T01:43:38.794Z,1027.51
2018-12-25T01:44:38.767Z,1027.47
2018-12-25T01:45:38.756Z,1027.49
2018-12-25T01:46:38.747Z,1027.48
2018-12-25T01:47:38.807Z,1027.51
2018-12-25T01:48:38.724Z,1027.51
2018-12-25T01:49:38.722Z,1027.54
2018-12-25T01:50:38.707Z,1027.54
2018-12-25T01:51:38.695Z,1027.56
2018-12-25T01:52:38.682Z,1027.56
2018-12-25T01:53:38.703Z,1027.56
2018-12-25T01:54:38.669Z,1027.57
2018-12-25T01:55:38.650Z,1027.55
2018-12-25T01:56:38.639Z,1027.51
2018-12-25T01:57:38.629Z,1027.55
2018-12-25T01:58:38.660Z,1027.52
2018-12-25T01:59:38.616Z,1027.61
2018-12-25T02:00:38.595Z,1027.60
2018-12-25T02:01:38.589Z,1027.63
2018-12-25T02:02:38.576Z,1027.66
2018-12-25T02:03:38.564Z,1027.67
2018-12-25T02:04:38.579Z,1027.69
2018-12-25T02:05:38.543Z,1027.69
2018-12-25T02:06:38.531Z,1027.70
2018-12-25T02:07:38.526Z,1027.72
2018-12-25T02:08:38.526Z,1027.72
2018-12-25T02:09:38.528Z,1027.73
2018-12-25T02:10:38.498Z,1027.75
2018-12-25T02:11:38.479Z,1027.75
2018-12-25T02:12:38.476Z,1027.74
2018-12-25T02:13:38.505Z,1027.70
2018-12-25T02:14:38.450Z,1027.68
2018-12-25T02:15:38.437Z,1027.68
2018-12-25T02:16:38.427Z,1027.70
2018-12-25T02:17:38.414Z,1027.68
2018-12-25T02:18:38.405Z,1027.70
2018-12-25T02:19:40.375Z,1027.65
2018-12-25T02:20:38.383Z,1027.67
2018-12-25T02:21:38.374Z,1027.66
2018-12-25T02:22:38.360Z,1027.65
2018-12-25T02:23:38.350Z,1027.63
2018-12-25T02:24:38.366Z,1027.65
2018-12-25T02:25:38.332Z,1027.63
2018-12-25T02:26:38.319Z,1027.63
2018-12-25T02:27:38.310Z,1027.63
2018-12-25T02:28:38.297Z,1027.66
2018-12-25T02:29:38.367Z,1027.66
2018-12-25T02:30:38.278Z,1027.61
2018-12-25T02:31:38.267Z,1027.57
2018-12-25T02:32:38.266Z,1027.60
2018-12-25T02:33:38.247Z,1027.61
2018-12-25T02:34:38.264Z,1027.56
2018-12-25T02:35:38.242Z,1027.55
2018-12-25T02:36:38.223Z,1027.46
2018-12-25T02:37:38.200Z,1027.45
2018-12-25T02:38:38.200Z,1027.47
2018-12-25T02:39:38.218Z,1027.45
2018-12-25T02:40:38.208Z,1027.46
2018-12-25T02:41:38.157Z,1027.49
2018-12-25T02:42:38.157Z,1027.51
2018-12-25T02:43:38.137Z,1027.55
2018-12-25T02:44:38.155Z,1027.55
2018-12-25T02:45:38.157Z,1027.56
2018-12-25T02:46:38.112Z,1027.51
2018-12-25T02:47:38.101Z,1027.47
2018-12-25T02:48:38.094Z,1027.44
2018-12-25T02:49:38.080Z,1027.45
2018-12-25T02:50:38.092Z,1027.34
2018-12-25T02:51:38.060Z,1027.37
2018-12-25T02:52:38.040Z,1027.37
2018-12-25T02:53:38.034Z,1027.35
2018-12-25T02:54:38.019Z,1027.31
2018-12-25T02:55:38.043Z,1027.38
2018-12-25T02:56:38.021Z,1027.34
2018-12-25T02:57:37.985Z,1027.31
2018-12-25T02:58:37.977Z,1027.30
2018-12-25T02:59:37.966Z,1027.28
2018-12-25T03:00:38.098Z,1027.25
2018-12-25T03:01:37.969Z,1027.26
2018-12-25T03:02:37.934Z,1027.31
2018-12-25T03:03:37.929Z,1027.28
2018-12-25T03:04:37.914Z,1027.30
2018-12-25T03:05:37.909Z,1027.30
2018-12-25T03:06:37.921Z,1027.27
2018-12-25T03:07:37.879Z,1027.27
2018-12-25T03:08:37.866Z,1027.29
2018-12-25T03:09:37.856Z,1027.25
2018-12-25T03:10:37.850Z,1027.28
2018-12-25T03:11:37.866Z,1027.33
2018-12-25T03:12:37.827Z,1027.37
2018-12-25T03:13:37.818Z,1027.31
2018-12-25T03:14:37.802Z,1027.33
2018-12-25T03:15:37.793Z,1027.35
2018-12-25T03:16:37.808Z,1027.34
2018-12-25T03:17:37.794Z,1027.35
2018-12-25T03:18:37.755Z,1027.36
2018-12-25T03:19:37.748Z,1027.23
2018-12-25T03:20:37.734Z,1027.24
2018-12-25T03:21:37.722Z,1027.20
2018-12-25T03:22:37.737Z,1027.13
2018-12-25T03:23:37.702Z,1027.15
2018-12-25T03:24:37.700Z,1027.10
2018-12-25T03:25:37.690Z,1027.12
2018-12-25T03:26:37.677Z,1027.13
2018-12-25T03:27:37.694Z,1027.12
2018-12-25T03:28:37.647Z,1027.04
2018-12-25T03:29:37.638Z,1027.05
2018-12-25T03:30:37.627Z,1027.02
2018-12-25T03:31:37.618Z,1027.00
2018-12-25T03:32:37.637Z,1027.02
2018-12-25T03:33:37.598Z,1027.00
2018-12-25T03:34:37.582Z,1027.03
2018-12-25T03:35:37.570Z,1027.06
2018-12-25T03:36:37.561Z,1026.99
2018-12-25T03:37:37.611Z,1027.01
2018-12-25T03:38:37.537Z,1027.03
2018-12-25T03:39:37.526Z,1027.01
2018-12-25T03:40:37.519Z,1027.02
2018-12-25T03:41:37.504Z,1027.01
2018-12-25T03:42:37.524Z,1027.01
2018-12-25T03:43:37.521Z,1027.00
2018-12-25T03:44:37.476Z,1026.96
2018-12-25T03:45:37.464Z,1026.99
2018-12-25T03:46:37.453Z,1026.96
2018-12-25T03:47:37.441Z,1026.99
2018-12-25T03:48:37.456Z,1027.02
2018-12-25T03:49:37.422Z,1026.99
2018-12-25T03:50:37.409Z,1026.99
2018-12-25T03:51:37.406Z,1026.96
2018-12-25T03:52:37.388Z,1026.99
2018-12-25T03:53:37.401Z,1026.98
2018-12-25T03:54:37.369Z,1027.01
2018-12-25T03:55:37.356Z,1026.94
2018-12-25T03:56:37.344Z,1026.93
2018-12-25T03:57:37.337Z,1026.93
2018-12-25T03:58:37.382Z,1026.90
2018-12-25T03:59:37.314Z,1026.92
2018-12-25T04:00:37.317Z,1026.96
2018-12-25T04:01:37.293Z,1026.95
2018-12-25T04:02:37.278Z,1026.95
2018-12-25T04:03:37.300Z,1026.92
2018-12-25T04:04:37.266Z,1026.91
2018-12-25T04:05:37.247Z,1026.90
2018-12-25T04:06:37.231Z,1026.97
2018-12-25T04:07:37.229Z,1026.96
2018-12-25T04:08:37.219Z,1026.94
2018-12-25T04:09:37.236Z,1026.97
2018-12-25T04:10:37.197Z,1026.99
2018-12-25T04:11:37.181Z,1027.01
2018-12-25T04:12:37.173Z,1027.00
2018-12-25T04:13:37.161Z,1026.98
2018-12-25T04:14:37.187Z,1027.01
2018-12-25T04:15:37.165Z,1026.94
2018-12-25T04:16:37.126Z,1026.98
2018-12-25T04:17:37.116Z,1027.02
2018-12-25T04:18:37.111Z,1027.05
2018-12-25T04:19:37.128Z,1027.06
2018-12-25T04:20:37.117Z,1027.07
2018-12-25T04:21:37.072Z,1027.04
2018-12-25T04:22:37.063Z,1027.00
2018-12-25T04:23:37.054Z,1027.03
2018-12-25T04:24:37.040Z,1027.03
2018-12-25T04:25:37.070Z,1027.02
2018-12-25T04:26:37.029Z,1027.03
2018-12-25T04:27:37.009Z,1026.98
2018-12-25T04:28:36.998Z,1026.99
2018-12-25T04:29:36.990Z,1026.97
2018-12-25T04:30:37.002Z,1026.95
2018-12-25T04:31:37.000Z,1026.93
2018-12-25T04:32:36.958Z,1026.99
2018-12-25T04:33:36.947Z,1026.97
2018-12-25T04:34:36.934Z,1026.95
2018-12-25T04:35:36.952Z,1026.96
2018-12-25T04:36:36.922Z,1027.03
2018-12-25T04:37:36.903Z,1027.06
2018-12-25T04:38:36.890Z,1027.01
2018-12-25T04:39:36.876Z,1027.00
2018-12-25T04:40:36.895Z,1026.98
2018-12-25T04:41:36.858Z,1026.96
2018-12-25T04:42:36.848Z,1026.97
2018-12-25T04:43:36.838Z,1026.96
2018-12-25T04:44:36.824Z,1026.95
2018-12-25T04:45:36.838Z,1026.97
2018-12-25T04:46:36.803Z,1026.99
2018-12-25T04:47:36.819Z,1027.02
2018-12-25T04:48:36.781Z,1027.01
2018-12-25T04:49:36.778Z,1026.99
2018-12-25T04:50:36.760Z,1027.01
2018-12-25T04:51:36.785Z,1027.01
2018-12-25T04:52:36.739Z,1026.98
2018-12-25T04:53:36.739Z,1026.97
2018-12-25T04:54:36.717Z,1026.97
2018-12-25T04:55:36.705Z,1026.99
2018-12-25T04:56:36.726Z,1026.95
2018-12-25T04:57:36.711Z,1026.97
2018-12-25T04:58:36.673Z,1026.99
2018-12-25T04:59:36.662Z,1027.00
2018-12-25T05:00:36.650Z,1027.01
2018-12-25T05:01:36.664Z,1027.00
2018-12-25T05:02:36.630Z,1027.02
2018-12-25T05:03:36.621Z,1027.02
2018-12-25T05:04:36.610Z,1027.08
2018-12-25T05:05:36.597Z,1027.05
2018-12-25T05:06:36.615Z,1027.06
2018-12-25T05:07:36.574Z,1026.98
2018-12-25T05:08:36.565Z,1027.04
2018-12-25T05:09:36.555Z,1027.02
2018-12-25T05:10:36.543Z,1027.04
2018-12-25T05:11:36.560Z,1027.04
2018-12-25T05:12:36.523Z,1027.04
2018-12-25T05:13:36.514Z,1027.05
2018-12-25T05:14:36.500Z,1027.04
2018-12-25T05:15:36.489Z,1027.06
2018-12-25T05:16:36.503Z,1027.08
2018-12-25T05:17:36.466Z,1027.02
2018-12-25T05:18:36.458Z,1027.05
2018-12-25T05:19:36.450Z,1027.05
2018-12-25T05:20:37.926Z,1027.03
2018-12-25T05:21:36.453Z,1026.98
2018-12-25T05:22:36.413Z,1026.98
2018-12-25T05:23:36.399Z,1026.95
2018-12-25T05:24:36.389Z,1026.95
2018-12-25T05:25:36.378Z,1026.96
2018-12-25T05:26:36.397Z,1026.97
2018-12-25T05:27:36.355Z,1026.96
2018-12-25T05:28:36.347Z,1026.98
2018-12-25T05:29:36.362Z,1026.98
2018-12-25T05:30:36.326Z,1027.02
2018-12-25T05:31:36.314Z,1026.98
2018-12-25T05:32:36.329Z,1027.02
2018-12-25T05:33:36.326Z,1027.01
2018-12-25T05:34:36.281Z,1027.02
2018-12-25T05:35:36.269Z,1027.02
2018-12-25T05:36:36.269Z,1027.04
2018-12-25T05:37:36.453Z,1027.05
2018-12-25T05:38:36.269Z,1027.04
2018-12-25T05:39:36.232Z,1027.04
2018-12-25T05:40:36.245Z,1027.03
2018-12-25T05:41:36.224Z,1027.04
2018-12-25T05:42:36.195Z,1027.05
2018-12-25T05:43:36.214Z,1027.04
2018-12-25T05:44:36.176Z,1027.04
2018-12-25T05:45:36.190Z,1027.07
2018-12-25T05:46:36.161Z,1027.07
2018-12-25T05:47:36.145Z,1027.07
2018-12-25T05:48:36.128Z,1027.04
2018-12-25T05:49:36.122Z,1026.99
2018-12-25T05:50:36.134Z,1026.99
2018-12-25T05:51:36.110Z,1027.03
2018-12-25T05:52:36.087Z,1027.11
2018-12-25T05:53:36.100Z,1027.10
2018-12-25T05:54:36.097Z,1027.12
2018-12-25T05:55:36.058Z,1027.15
2018-12-25T05:56:36.042Z,1027.06
2018-12-25T05:57:36.032Z,1027.11
2018-12-25T05:58:36.020Z,1027.17
2018-12-25T05:59:36.036Z,1027.14
2018-12-25T06:00:36.029Z,1027.17
2018-12-25T06:01:35.986Z,1027.13
2018-12-25T06:02:35.977Z,1027.14
2018-12-25T06:03:35.965Z,1027.17
2018-12-25T06:04:35.983Z,1027.13
2018-12-25T06:05:35.943Z,1027.17
2018-12-25T06:06:35.932Z,1027.15
2018-12-25T06:07:35.922Z,1027.18
2018-12-25T06:08:35.911Z,1027.18
2018-12-25T06:09:35.922Z,1027.16
2018-12-25T06:10:35.918Z,1027.17
2018-12-25T06:11:35.887Z,1027.12
2018-12-25T06:12:35.867Z,1027.07
2018-12-25T06:13:35.856Z,1027.05
2018-12-25T06:14:35.876Z,1027.09
2018-12-25T06:15:35.833Z,1027.05
2018-12-25T06:16:35.825Z,1027.09
2018-12-25T06:17:35.813Z,1027.12
2018-12-25T06:18:35.801Z,1027.11
2018-12-25T06:19:35.817Z,1027.14
2018-12-25T06:20:35.780Z,1027.15
2018-12-25T06:21:35.770Z,1027.13
2018-12-25T06:22:35.757Z,1027.14
2018-12-25T06:23:35.747Z,1027.12
2018-12-25T06:24:35.748Z,1027.17
2018-12-25T06:25:35.759Z,1027.17
2018-12-25T06:26:35.718Z,1027.17
2018-12-25T06:27:35.704Z,1027.18
2018-12-25T06:28:35.695Z,1027.17
2018-12-25T06:29:35.683Z,1027.21
2018-12-25T06:30:35.707Z,1027.17
2018-12-25T06:31:35.669Z,1027.17
2018-12-25T06:32:35.648Z,1027.13
2018-12-25T06:33:35.641Z,1027.14
2018-12-25T06:34:35.633Z,1027.15
2018-12-25T06:35:35.643Z,1027.15
2018-12-25T06:36:35.660Z,1027.18
2018-12-25T06:37:35.594Z,1027.16
2018-12-25T06:38:35.585Z,1027.19
2018-12-25T06:39:35.578Z,1027.18
2018-12-25T06:40:35.566Z,1027.23
2018-12-25T06:41:35.577Z,1027.16
2018-12-25T06:42:35.542Z,1027.12
2018-12-25T06:43:35.531Z,1027.13
2018-12-25T06:44:35.519Z,1027.08
2018-12-25T06:45:35.508Z,1027.11
2018-12-25T06:46:35.620Z,1027.09
2018-12-25T06:47:35.487Z,1027.11
2018-12-25T06:48:35.476Z,1027.07
2018-12-25T06:49:35.468Z,1027.08
2018-12-25T06:50:35.453Z,1027.05
2018-12-25T06:51:35.477Z,1027.09
2018-12-25T06:52:35.433Z,1027.05
2018-12-25T06:53:35.420Z,1027.02
2018-12-25T06:54:35.410Z,1027.05
2018-12-25T06:55:35.400Z,1027.00
2018-12-25T06:56:35.433Z,1026.93
2018-12-25T06:57:35.376Z,1026.93
2018-12-25T06:58:35.367Z,1026.93
2018-12-25T06:59:35.355Z,1026.93
2018-12-25T07:00:35.344Z,1026.86
2018-12-25T07:01:35.359Z,1026.83
2018-12-25T07:02:35.357Z,1026.87
2018-12-25T07:03:35.318Z,1026.88
2018-12-25T07:04:35.307Z,1026.86
2018-12-25T07:05:35.288Z,1026.90
2018-12-25T07:06:35.280Z,1026.86
2018-12-25T07:07:35.295Z,1026.83
2018-12-25T07:08:35.265Z,1026.83
2018-12-25T07:09:35.248Z,1026.86
2018-12-25T07:10:35.243Z,1026.87
2018-12-25T07:11:35.224Z,1026.85
2018-12-25T07:12:35.238Z,1026.85
2018-12-25T07:13:35.226Z,1026.92
2018-12-25T07:14:35.189Z,1026.95
2018-12-25T07:15:35.184Z,1026.91
2018-12-25T07:16:35.168Z,1026.95
2018-12-25T07:17:35.191Z,1026.92
2018-12-25T07:18:35.172Z,1026.93
2018-12-25T07:19:35.135Z,1026.86
2018-12-25T07:20:35.127Z,1026.86
2018-12-25T07:21:35.115Z,1026.85
2018-12-25T07:22:35.130Z,1026.83
2018-12-25T07:23:35.091Z,1026.79
2018-12-25T07:24:35.082Z,1026.81
2018-12-25T07:25:35.069Z,1026.82
2018-12-25T07:26:35.059Z,1026.76
2018-12-25T07:27:35.075Z,1026.76
2018-12-25T07:28:35.038Z,1026.78
2018-12-25T07:29:35.026Z,1026.74
2018-12-25T07:30:35.018Z,1026.75
2018-12-25T07:31:35.005Z,1026.76
2018-12-25T07:32:35.019Z,1026.75
2018-12-25T07:33:34.986Z,1026.80
2018-12-25T07:34:34.999Z,1026.80
2018-12-25T07:35:34.988Z,1026.79
2018-12-25T07:36:34.954Z,1026.86
2018-12-25T07:37:34.938Z,1026.86
2018-12-25T07:38:34.943Z,1026.89
2018-12-25T07:39:34.944Z,1026.91
2018-12-25T07:40:34.909Z,1026.91
2018-12-25T07:41:34.898Z,1026.91
2018-12-25T07:42:34.887Z,1026.98
2018-12-25T07:43:34.903Z,1026.97
2018-12-25T07:44:34.893Z,1026.98
2018-12-25T07:45:34.855Z,1027.04
2018-12-25T07:46:34.850Z,1027.06
2018-12-25T07:47:34.838Z,1027.03
2018-12-25T07:48:34.824Z,1027.07
2018-12-25T07:49:34.857Z,1027.02
2018-12-25T07:50:34.805Z,1026.99
2018-12-25T07:51:34.794Z,1027.00
2018-12-25T07:52:34.785Z,1026.96
2018-12-25T07:53:34.770Z,1027.00
2018-12-25T07:54:34.789Z,1026.97
2018-12-25T07:55:34.755Z,1026.96
2018-12-25T07:56:34.741Z,1026.93
2018-12-25T07:57:34.735Z,1026.96
2018-12-25T07:58:34.734Z,1026.92
2018-12-25T07:59:34.747Z,1026.96
2018-12-25T08:00:34.703Z,1026.97
2018-12-25T08:01:34.690Z,1026.98
2018-12-25T08:02:34.681Z,1026.97
2018-12-25T08:03:34.671Z,1026.97
2018-12-25T08:04:34.690Z,1026.94
2018-12-25T08:05:34.679Z,1026.94
2018-12-25T08:06:34.664Z,1026.99
2018-12-25T08:07:34.628Z,1027.01
2018-12-25T08:08:34.618Z,1027.04
2018-12-25T08:09:34.609Z,1027.05
2018-12-25T08:10:34.624Z,1027.05
2018-12-25T08:11:34.589Z,1027.05
2018-12-25T08:12:34.582Z,1027.07
2018-12-25T08:13:34.572Z,1027.08
2018-12-25T08:14:34.581Z,1027.09
2018-12-25T08:15:34.545Z,1027.05
2018-12-25T08:16:34.560Z,1027.03
2018-12-25T08:17:34.526Z,1027.07
2018-12-25T08:18:34.513Z,1027.05
2018-12-25T08:19:34.506Z,1027.04
2018-12-25T08:20:34.516Z,1027.05
2018-12-25T08:21:34.485Z,1027.03
2018-12-25T08:22:34.476Z,1027.01
2018-12-25T08:23:34.465Z,1027.00
2018-12-25T08:24:34.455Z,1027.00
2018-12-25T08:25:34.469Z,1027.03
2018-12-25T08:26:34.434Z,1026.98
2018-12-25T08:27:34.421Z,1026.92
2018-12-25T08:28:34.412Z,1026.93
2018-12-25T08:29:34.412Z,1026.91
2018-12-25T08:30:34.426Z,1026.94
2018-12-25T08:31:34.380Z,1026.96
2018-12-25T08:32:34.401Z,1026.96
2018-12-25T08:33:34.362Z,1027.02
2018-12-25T08:34:34.350Z,1026.99
2018-12-25T08:35:34.341Z,1026.93
2018-12-25T08:36:36.468Z,1026.97
2018-12-25T08:37:34.341Z,1026.94
2018-12-25T08:38:34.436Z,1026.97
2018-12-25T08:39:34.297Z,1026.92
2018-12-25T08:40:34.287Z,1026.84
2018-12-25T08:41:34.300Z,1026.89
2018-12-25T08:42:34.265Z,1026.85
2018-12-25T08:43:34.260Z,1026.87
2018-12-25T08:44:34.244Z,1026.81
2018-12-25T08:45:34.241Z,1026.78
2018-12-25T08:46:34.279Z,1026.80
2018-12-25T08:47:34.215Z,1026.82
2018-12-25T08:48:34.203Z,1026.72
2018-12-25T08:49:34.192Z,1026.70
2018-12-25T08:50:34.186Z,1026.67
2018-12-25T08:51:37.766Z,1026.68
2018-12-25T08:52:34.254Z,1026.65
2018-12-25T08:53:34.153Z,1026.67
2018-12-25T08:54:34.140Z,1026.62
2018-12-25T08:55:34.131Z,1026.65
2018-12-25T08:56:34.243Z,1026.65
2018-12-25T08:57:34.239Z,1026.66
2018-12-25T08:58:34.101Z,1026.70
2018-12-25T08:59:34.093Z,1026.76
2018-12-25T09:00:34.078Z,1026.77
2018-12-25T09:01:34.070Z,1026.72
2018-12-25T09:02:34.085Z,1026.75
2018-12-25T09:03:34.051Z,1026.73
2018-12-25T09:04:34.040Z,1026.74
2018-12-25T09:05:34.037Z,1026.74
2018-12-25T09:06:34.045Z,1026.71
2018-12-25T09:07:34.033Z,1026.68
2018-12-25T09:08:34.942Z,1026.69
2018-12-25T09:09:33.991Z,1026.65
2018-12-25T09:10:33.982Z,1026.63
2018-12-25T09:11:33.968Z,1026.62
2018-12-25T09:12:33.958Z,1026.63
2018-12-25T09:13:33.986Z,1026.58
2018-12-25T09:14:33.943Z,1026.59
2018-12-25T09:15:33.937Z,1026.63
2018-12-25T09:16:33.920Z,1026.62
2018-12-25T09:17:33.907Z,1026.58
2018-12-25T09:18:33.934Z,1026.56
2018-12-25T09:19:33.888Z,1026.54
2018-12-25T09:20:33.878Z,1026.59
2018-12-25T09:21:33.873Z,1026.57
2018-12-25T09:22:33.865Z,1026.59
2018-12-25T09:23:33.873Z,1026.63
2018-12-25T09:24:33.840Z,1026.66
2018-12-25T09:25:33.829Z,1026.64
2018-12-25T09:26:33.924Z,1026.70
2018-12-25T09:27:33.818Z,1026.73
2018-12-25T09:28:33.834Z,1026.73
2018-12-25T09:29:33.788Z,1026.75
2018-12-25T09:30:33.781Z,1026.83
2018-12-25T09:31:33.801Z,1026.88
2018-12-25T09:32:33.759Z,1026.96
2018-12-25T09:33:33.790Z,1026.96
2018-12-25T09:34:33.742Z,1026.91
2018-12-25T09:35:33.728Z,1026.95
2018-12-25T09:36:33.721Z,1026.97
2018-12-25T09:37:33.708Z,1026.99
2018-12-25T09:38:33.734Z,1026.98
2018-12-25T09:39:33.713Z,1026.96
2018-12-25T09:40:33.681Z,1026.99
2018-12-25T09:41:33.671Z,1027.00
2018-12-25T09:42:33.658Z,1026.96
2018-12-25T09:43:33.648Z,1026.98
2018-12-25T09:44:33.672Z,1026.98
2018-12-25T09:45:33.626Z,1027.04
2018-12-25T09:46:33.625Z,1027.05
2018-12-25T09:47:33.609Z,1027.09
2018-12-25T09:48:33.599Z,1027.15
2018-12-25T09:49:33.610Z,1027.13
2018-12-25T09:50:33.578Z,1027.11
2018-12-25T09:51:33.568Z,1027.12
2018-12-25T09:52:33.560Z,1027.13
2018-12-25T09:53:33.544Z,1027.11
2018-12-25T09:54:33.568Z,1027.11
2018-12-25T09:55:33.541Z,1027.12
2018-12-25T09:56:33.519Z,1027.13
2018-12-25T09:57:33.511Z,1027.12
2018-12-25T09:58:33.502Z,1027.18
2018-12-25T09:59:33.516Z,1027.17
2018-12-25T10:00:33.476Z,1027.22
2018-12-25T10:01:33.469Z,1027.18
2018-12-25T10:02:33.456Z,1027.20
2018-12-25T10:03:33.447Z,1027.21
2018-12-25T10:04:33.461Z,1027.20
2018-12-25T10:05:33.427Z,1027.21
2018-12-25T10:06:33.419Z,1027.14
2018-12-25T10:07:33.424Z,1027.12
2018-12-25T10:08:33.396Z,1027.10
2018-12-25T10:09:33.416Z,1027.11
2018-12-25T10:10:33.428Z,1027.13
2018-12-25T10:11:33.366Z,1027.13
2018-12-25T10:12:33.365Z,1027.15
2018-12-25T10:13:33.347Z,1027.24
2018-12-25T10:14:33.338Z,1027.20
2018-12-25T10:15:33.351Z,1027.21
2018-12-25T10:16:33.320Z,1027.20
2018-12-25T10:17:33.321Z,1027.24
2018-12-25T10:18:33.304Z,1027.17
2018-12-25T10:19:33.286Z,1027.16
2018-12-25T10:20:33.435Z,1027.15
2018-12-25T10:21:33.267Z,1027.09
2018-12-25T10:22:33.261Z,1027.10
2018-12-25T10:23:33.246Z,1027.08
2018-12-25T10:24:33.236Z,1027.05
2018-12-25T10:25:33.263Z,1027.04
2018-12-25T10:26:33.217Z,1027.03
2018-12-25T10:27:33.204Z,1026.98
2018-12-25T10:28:33.197Z,1026.98
2018-12-25T10:29:33.194Z,1026.95
2018-12-25T10:30:33.226Z,1026.98
2018-12-25T10:31:33.167Z,1027.00
2018-12-25T10:32:33.238Z,1026.99
2018-12-25T10:33:33.146Z,1026.99
2018-12-25T10:34:33.139Z,1026.91
2018-12-25T10:35:33.133Z,1026.91
2018-12-25T10:36:33.208Z,1026.90
2018-12-25T10:37:33.115Z,1026.86
2018-12-25T10:38:33.097Z,1026.84
2018-12-25T10:39:33.090Z,1026.83
2018-12-25T10:40:33.075Z,1026.85
2018-12-25T10:41:33.094Z,1026.85
2018-12-25T10:42:33.056Z,1026.86
2018-12-25T10:43:34.847Z,1026.90
2018-12-25T10:44:33.035Z,1026.88
2018-12-25T10:45:33.039Z,1026.91
2018-12-25T10:46:33.063Z,1026.94
2018-12-25T10:47:33.004Z,1026.96
2018-12-25T10:48:33.002Z,1026.99
2018-12-25T10:49:32.995Z,1027.01
2018-12-25T10:50:32.980Z,1026.99
2018-12-25T10:51:32.969Z,1026.96
2018-12-25T10:52:32.989Z,1026.99
2018-12-25T10:53:32.963Z,1026.95
2018-12-25T10:54:32.937Z,1026.94
2018-12-25T10:55:32.927Z,1026.94
2018-12-25T10:56:32.916Z,1026.92
2018-12-25T10:57:32.939Z,1026.94
2018-12-25T10:58:32.900Z,1026.94
2018-12-25T10:59:32.886Z,1026.89
2018-12-25T11:00:32.876Z,1026.89
2018-12-25T11:01:32.876Z,1026.93
2018-12-25T11:02:32.881Z,1026.92
2018-12-25T11:03:32.875Z,1026.91
2018-12-25T11:04:32.848Z,1026.92
2018-12-25T11:05:32.824Z,1026.93
2018-12-25T11:06:32.817Z,1026.90
2018-12-25T11:07:32.838Z,1026.93
2018-12-25T11:08:32.837Z,1026.94
2018-12-25T11:09:32.789Z,1026.95
2018-12-25T11:10:32.779Z,1026.96
2018-12-25T11:11:32.765Z,1026.96
2018-12-25T11:12:32.796Z,1026.98
2018-12-25T11:13:32.745Z,1026.99
2018-12-25T11:14:32.735Z,1027.03
2018-12-25T11:15:32.730Z,1027.03
2018-12-25T11:16:32.722Z,1027.03
2018-12-25T11:17:32.706Z,1027.00
2018-12-25T11:18:32.720Z,1027.00
2018-12-25T11:19:32.712Z,1027.03
2018-12-25T11:20:32.678Z,1027.00
2018-12-25T11:21:32.673Z,1026.99
2018-12-25T11:22:32.683Z,1026.97
2018-12-25T11:23:32.674Z,1026.99
2018-12-25T11:24:32.643Z,1026.97
2018-12-25T11:25:32.639Z,1026.98
2018-12-25T11:26:32.618Z,1027.04
2018-12-25T11:27:32.609Z,1026.99
2018-12-25T11:28:32.639Z,1027.01
2018-12-25T11:29:32.596Z,1026.98
2018-12-25T11:30:32.576Z,1026.98
2018-12-25T11:31:32.570Z,1026.99
2018-12-25T11:32:32.557Z,1026.97
2018-12-25T11:33:32.583Z,1026.96
2018-12-25T11:34:32.575Z,1026.95
2018-12-25T11:35:32.555Z,1026.92
2018-12-25T11:36:32.518Z,1026.93
2018-12-25T11:37:32.507Z,1026.95
2018-12-25T11:38:32.500Z,1026.90
2018-12-25T11:39:32.515Z,1026.95
2018-12-25T11:40:32.476Z,1026.89
2018-12-25T11:41:32.465Z,1026.92
2018-12-25T11:42:32.454Z,1026.88
2018-12-25T11:43:32.444Z,1026.87
2018-12-25T11:44:32.476Z,1026.80
2018-12-25T11:45:32.449Z,1026.85
2018-12-25T11:46:32.414Z,1026.79
2018-12-25T11:47:32.401Z,1026.81
2018-12-25T11:48:32.399Z,1026.80
2018-12-25T11:49:32.385Z,1026.75
2018-12-25T11:50:32.396Z,1026.77
2018-12-25T11:51:32.360Z,1026.78
2018-12-25T11:52:32.350Z,1026.82
2018-12-25T11:53:32.342Z,1026.84
2018-12-25T11:54:32.364Z,1026.83
2018-12-25T11:55:32.403Z,1026.81
2018-12-25T11:56:32.315Z,1026.83
2018-12-25T11:57:32.304Z,1026.81
2018-12-25T11:58:32.294Z,1026.79
2018-12-25T11:59:32.316Z,1026.79
2018-12-25T12:00:32.269Z,1026.77
2018-12-25T12:01:32.255Z,1026.84
2018-12-25T12:02:32.243Z,1026.79
2018-12-25T12:03:32.245Z,1026.82
2018-12-25T12:04:32.228Z,1026.82
2018-12-25T12:05:32.243Z,1026.80